Time;durP1;ratioP1;P1;durP2;ratioP2;P2;SDS_P1;SDS_P2;PMS_P1;PMS_P2;Temp;Humidity;BMP_temperature;BMP_pressure;BME280_temperature;BME280_humidity;BME280_pressure;Samples;Min_cycle;Max_cycle;Signal;HPM_P1;HPM_P2
2023/05/15 00:00:14;;;;;;;;;;;11.20;99.90;;;;;;5062595;28;19925;-93
2023/05/15 00:02:39;;;;;;;;;;;11.10;99.90;;;;;;5043952;28;19980;-95
2023/05/15 00:05:08;;;;;;;;;;;11.10;99.90;;;;;;5042667;28;19928;-93
2023/05/15 00:07:34;;;;;;;;;;;11.20;99.90;;;;;;5043768;28;19988;-92
2023/05/15 00:10:00;;;;;;;;;;;11.10;99.90;;;;;;5051426;28;19924;-93
2023/05/15 00:12:26;;;;;;;;;;;11.20;99.90;;;;;;5047545;28;19932;-93
2023/05/15 00:14:51;;;;;;;;;;;11.10;99.90;;;;;;5057430;28;20042;-93
2023/05/15 00:17:17;;;;;;;;;;;11.10;99.90;;;;;;5056914;28;19924;-93
2023/05/15 00:19:43;;;;;;;;;;;11.10;99.90;;;;;;5039055;28;19925;-93
2023/05/15 00:22:09;;;;;;;;;;;11.10;99.90;;;;;;5051917;28;19925;-92
2023/05/15 00:24:34;;;;;;;;;;;11.00;99.90;;;;;;5041074;28;19931;-92
2023/05/15 00:27:00;;;;;;;;;;;11.00;99.90;;;;;;5043567;28;19932;-93
2023/05/15 00:29:26;;;;;;;;;;;11.00;99.90;;;;;;5064508;28;20288;-94
2023/05/15 00:31:52;;;;;;;;;;;11.00;99.90;;;;;;5059697;28;19934;-93
2023/05/15 00:34:18;;;;;;;;;;;11.00;99.90;;;;;;5067583;28;19929;-94
2023/05/15 00:36:47;;;;;;;;;;;10.80;99.90;;;;;;5091278;28;19936;-93
2023/05/15 00:39:14;;;;;;;;;;;10.90;99.90;;;;;;5053485;28;19932;-92
2023/05/15 00:41:39;;;;;;;;;;;10.90;99.90;;;;;;5049902;28;19924;-93
2023/05/15 00:44:06;;;;;;;;;;;10.90;99.90;;;;;;5041577;28;19932;-94
2023/05/15 00:46:33;;;;;;;;;;;10.90;99.90;;;;;;5048270;28;19924;-93
2023/05/15 00:48:59;;;;;;;;;;;10.90;99.90;;;;;;5060207;28;19959;-93
2023/05/15 00:51:25;;;;;;;;;;;11.00;99.90;;;;;;5053096;28;19925;-92
2023/05/15 00:53:51;;;;;;;;;;;11.00;99.90;;;;;;5046983;28;19932;-94
2023/05/15 00:56:17;;;;;;;;;;;11.00;99.90;;;;;;5047287;28;19928;-91
2023/05/15 00:58:44;;;;;;;;;;;10.90;99.90;;;;;;5063710;28;19931;-94
2023/05/15 01:01:12;;;;;;;;;;;13.00;99.90;;;;;;5079922;28;19924;-93
2023/05/15 01:03:37;;;;;;;;;;;10.80;99.90;;;;;;5063670;28;20015;-92
2023/05/15 01:06:03;;;;;;;;;;;10.90;99.90;;;;;;5045398;28;19955;-92
2023/05/15 01:08:35;;;;;;;;;;;10.90;99.90;;;;;;5064195;28;19924;-93
2023/05/15 01:11:02;;;;;;;;;;;10.90;99.90;;;;;;5060608;28;19978;-93
2023/05/15 01:13:28;;;;;;;;;;;10.90;99.90;;;;;;5060111;28;19924;-92
2023/05/15 01:15:54;;;;;;;;;;;10.90;99.90;;;;;;5052287;28;20002;-92
2023/05/15 01:18:20;;;;;;;;;;;10.80;99.90;;;;;;5041984;28;20379;-93
2023/05/15 01:21:03;;;;;;;;;;;10.80;99.90;;;;;;5047478;28;20459;-91
2023/05/15 01:23:47;;;;;;;;;;;10.80;99.90;;;;;;5069806;28;20314;-94
2023/05/15 01:26:28;;;;;;;;;;;10.80;99.90;;;;;;5073739;28;19963;-93
2023/05/15 01:28:58;;;;;;;;;;;10.70;99.90;;;;;;5053347;28;19924;-91
2023/05/15 01:31:25;;;;;;;;;;;10.80;99.90;;;;;;5058617;28;20011;-92
2023/05/15 01:33:55;;;;;;;;;;;10.80;99.90;;;;;;5062794;28;19971;-94
2023/05/15 01:36:23;;;;;;;;;;;10.80;99.90;;;;;;5060450;28;19967;-92
2023/05/15 01:38:56;;;;;;;;;;;10.70;99.90;;;;;;5061118;28;19925;-94
2023/05/15 01:41:30;;;;;;;;;;;8.80;99.90;;;;;;5049130;28;19940;-92
2023/05/15 01:43:59;;;;;;;;;;;10.70;99.90;;;;;;5059843;28;19924;-93
2023/05/15 01:46:26;;;;;;;;;;;10.70;99.90;;;;;;5077550;28;19968;-94
2023/05/15 01:48:53;;;;;;;;;;;10.60;99.90;;;;;;5061195;28;19932;-92
2023/05/15 01:51:19;;;;;;;;;;;10.70;99.90;;;;;;5060340;28;19974;-93
2023/05/15 01:53:46;;;;;;;;;;;10.60;99.90;;;;;;5073678;28;19967;-94
2023/05/15 01:56:12;;;;;;;;;;;10.70;99.90;;;;;;5046627;28;19931;-92
2023/05/15 01:58:38;;;;;;;;;;;10.60;99.90;;;;;;5050160;28;19977;-93
2023/05/15 02:01:04;;;;;;;;;;;10.60;99.90;;;;;;5070108;28;19986;-91
2023/05/15 02:03:33;;;;;;;;;;;10.60;99.90;;;;;;5052949;28;19985;-91
2023/05/15 02:06:00;;;;;;;;;;;10.60;99.90;;;;;;5045644;28;20012;-91
2023/05/15 02:08:27;;;;;;;;;;;10.70;99.90;;;;;;5062016;28;20376;-92
2023/05/15 02:10:55;;;;;;;;;;;10.60;99.90;;;;;;5076091;28;19925;-92
2023/05/15 02:13:21;;;;;;;;;;;10.60;99.90;;;;;;5057312;28;19925;-92
2023/05/15 02:15:46;;;;;;;;;;;10.70;99.90;;;;;;5045265;28;19950;-92
2023/05/15 02:18:12;;;;;;;;;;;10.60;99.90;;;;;;5070975;28;19929;-92
2023/05/15 02:20:38;;;;;;;;;;;10.50;99.90;;;;;;5072644;28;19950;-91
2023/05/15 02:23:04;;;;;;;;;;;10.60;99.90;;;;;;5062029;28;19924;-91
2023/05/15 02:25:45;;;;;;;;;;;10.60;99.90;;;;;;5057712;28;19932;-92
2023/05/15 02:28:16;;;;;;;;;;;10.50;99.90;;;;;;5053307;28;19925;-90
2023/05/15 02:30:48;;;;;;;;;;;10.50;99.90;;;;;;5061839;28;19998;-91
2023/05/15 02:33:23;;;;;;;;;;;10.50;99.90;;;;;;5058612;28;19924;-92
2023/05/15 02:35:55;;;;;;;;;;;10.40;99.90;;;;;;5056353;28;19964;-93
2023/05/15 02:38:25;;;;;;;;;;;10.30;99.90;;;;;;5061706;28;19932;-91
2023/05/15 02:40:51;;;;;;;;;;;10.30;99.90;;;;;;5051666;28;19932;-92
2023/05/15 02:43:17;;;;;;;;;;;10.30;99.90;;;;;;5042071;28;19971;-94
2023/05/15 02:45:44;;;;;;;;;;;10.20;99.90;;;;;;5059273;28;19924;-91
2023/05/15 02:48:11;;;;;;;;;;;10.20;99.90;;;;;;5051093;28;19932;-92
2023/05/15 02:50:36;;;;;;;;;;;10.20;99.90;;;;;;5045096;28;19928;-92
2023/05/15 02:53:02;;;;;;;;;;;10.20;99.90;;;;;;5046288;28;19924;-92
2023/05/15 02:55:28;;;;;;;;;;;10.10;99.90;;;;;;5062039;28;19947;-92
2023/05/15 02:57:54;;;;;;;;;;;10.10;99.90;;;;;;5060740;28;20281;-92
2023/05/15 03:00:20;;;;;;;;;;;10.10;99.90;;;;;;5077739;28;20425;-94
2023/05/15 03:02:45;;;;;;;;;;;10.10;99.90;;;;;;5047771;28;19935;-92
2023/05/15 03:05:11;;;;;;;;;;;10.10;99.90;;;;;;5048423;28;19996;-91
2023/05/15 03:07:36;;;;;;;;;;;10.00;99.90;;;;;;5043940;28;20019;-92
2023/05/15 03:10:04;;;;;;;;;;;10.00;99.90;;;;;;5041015;28;19988;-92
2023/05/15 03:12:29;;;;;;;;;;;9.90;99.90;;;;;;5062563;28;19924;-93
2023/05/15 03:14:55;;;;;;;;;;;9.90;99.90;;;;;;5043507;28;19970;-92
2023/05/15 03:17:21;;;;;;;;;;;9.90;99.90;;;;;;5061677;28;19980;-93
2023/05/15 03:19:46;;;;;;;;;;;9.90;99.90;;;;;;5068008;28;19931;-92
2023/05/15 03:22:12;;;;;;;;;;;9.90;99.90;;;;;;5048505;28;19921;-92
2023/05/15 03:24:38;;;;;;;;;;;9.80;99.90;;;;;;5032598;28;19963;-92
2023/05/15 03:27:04;;;;;;;;;;;9.80;99.90;;;;;;5043739;28;19925;-91
2023/05/15 03:29:29;;;;;;;;;;;9.70;99.90;;;;;;5043683;28;19929;-93
2023/05/15 03:31:55;;;;;;;;;;;9.70;99.90;;;;;;5044402;28;19924;-92
2023/05/15 03:34:21;;;;;;;;;;;9.70;99.90;;;;;;5028436;28;19929;-93
2023/05/15 03:36:46;;;;;;;;;;;9.70;99.90;;;;;;5027925;28;20043;-93
2023/05/15 03:39:12;;;;;;;;;;;10.40;99.90;;;;;;5059420;28;19932;-93
2023/05/15 03:41:38;;;;;;;;;;;9.70;99.90;;;;;;5028610;28;19970;-92
2023/05/15 03:44:03;;;;;;;;;;;9.60;99.90;;;;;;5036074;28;19925;-92
2023/05/15 03:46:29;;;;;;;;;;;9.60;99.90;;;;;;5053238;28;19932;-94
2023/05/15 03:48:55;;;;;;;;;;;9.50;99.90;;;;;;5034641;28;19951;-91
2023/05/15 03:51:23;;;;;;;;;;;9.50;99.90;;;;;;5028210;28;19955;-92
2023/05/15 03:53:48;;;;;;;;;;;9.40;99.90;;;;;;5043120;28;20015;-92
2023/05/15 03:56:14;;;;;;;;;;;9.50;99.90;;;;;;5020879;28;19924;-92
2023/05/15 03:58:40;;;;;;;;;;;9.50;99.90;;;;;;5025727;28;19980;-92
2023/05/15 04:01:06;;;;;;;;;;;9.50;99.90;;;;;;5043408;28;20123;-91
2023/05/15 04:03:32;;;;;;;;;;;9.50;99.90;;;;;;5024497;28;19925;-92
2023/05/15 04:05:57;;;;;;;;;;;9.50;99.90;;;;;;5040575;28;19925;-93
2023/05/15 04:08:23;;;;;;;;;;;9.50;99.90;;;;;;5030896;28;20140;-92
2023/05/15 04:10:49;;;;;;;;;;;9.40;99.90;;;;;;5017494;28;19924;-92
2023/05/15 04:13:15;;;;;;;;;;;9.50;99.90;;;;;;5028131;28;19931;-92
2023/05/15 04:15:41;;;;;;;;;;;9.50;99.90;;;;;;5046705;28;19924;-93
2023/05/15 04:18:06;;;;;;;;;;;9.50;99.90;;;;;;5029073;28;19929;-93
2023/05/15 04:20:32;;;;;;;;;;;9.50;99.90;;;;;;5030201;28;19932;-92
2023/05/15 04:22:58;;;;;;;;;;;9.50;99.90;;;;;;5059570;28;19925;-91
2023/05/15 04:25:24;;;;;;;;;;;9.60;99.90;;;;;;5047583;28;20230;-92
2023/05/15 04:27:50;;;;;;;;;;;9.60;99.90;;;;;;5041742;28;20303;-93
2023/05/15 04:30:15;;;;;;;;;;;9.60;99.90;;;;;;5034930;28;19924;-93
2023/05/15 04:32:41;;;;;;;;;;;9.70;99.90;;;;;;5027056;28;20027;-93
2023/05/15 04:35:09;;;;;;;;;;;12.80;99.90;;;;;;5043222;28;19925;-92
2023/05/15 04:37:35;;;;;;;;;;;9.70;99.90;;;;;;5062989;28;19924;-92
2023/05/15 04:40:00;;;;;;;;;;;9.80;99.90;;;;;;5040353;28;19946;-91
2023/05/15 04:42:26;;;;;;;;;;;9.80;99.90;;;;;;5043444;28;19921;-92
2023/05/15 04:44:52;;;;;;;;;;;9.90;99.90;;;;;;5035951;28;20398;-92
2023/05/15 04:47:18;;;;;;;;;;;9.90;99.90;;;;;;5047622;28;19931;-93
2023/05/15 04:49:43;;;;;;;;;;;9.90;99.90;;;;;;5046386;28;19977;-93
2023/05/15 04:52:09;;;;;;;;;;;9.90;99.90;;;;;;5030551;28;19968;-92
2023/05/15 04:54:35;;;;;;;;;;;9.90;99.90;;;;;;5047521;28;20015;-92
2023/05/15 04:57:01;;;;;;;;;;;9.90;99.90;;;;;;5028547;28;19956;-92
2023/05/15 04:59:29;;;;;;;;;;;9.90;99.90;;;;;;5037435;28;19976;-91
2023/05/15 05:01:55;;;;;;;;;;;9.90;99.90;;;;;;5012534;28;19947;-90
2023/05/15 05:04:22;;;;;;;;;;;9.80;99.90;;;;;;5020309;28;19928;-90
2023/05/15 05:06:47;;;;;;;;;;;9.90;99.90;;;;;;5029871;28;20027;-89
2023/05/15 05:09:13;;;;;;;;;;;9.90;99.90;;;;;;5039685;28;19924;-91
2023/05/15 05:11:42;;;;;;;;;;;;;;;;;;5026574;28;19925;-92
2023/05/15 05:14:11;;;;;;;;;;;10.10;99.90;;;;;;5046237;28;19946;-91
2023/05/15 05:16:37;;;;;;;;;;;10.30;99.90;;;;;;5054004;28;19952;-93
2023/05/15 05:19:03;;;;;;;;;;;10.40;99.90;;;;;;5035269;28;19925;-93
2023/05/15 05:21:29;;;;;;;;;;;10.40;99.90;;;;;;5044269;28;19924;-92
2023/05/15 05:23:55;;;;;;;;;;;;;;;;;;5042883;28;20007;-93
2023/05/15 05:26:21;;;;;;;;;;;10.60;99.90;;;;;;5056279;28;19959;-93
2023/05/15 05:28:47;;;;;;;;;;;10.70;99.90;;;;;;5035133;28;19928;-93
2023/05/15 05:31:12;;;;;;;;;;;10.80;99.90;;;;;;5029508;28;19931;-93
2023/05/15 05:33:38;;;;;;;;;;;10.90;99.90;;;;;;5028353;28;19951;-91
2023/05/15 05:36:04;;;;;;;;;;;11.00;99.90;;;;;;5027117;28;19925;-92
2023/05/15 05:38:31;;;;;;;;;;;11.10;99.90;;;;;;5043013;28;19924;-93
2023/05/15 05:40:57;;;;;;;;;;;11.20;99.90;;;;;;5042711;28;19935;-92
2023/05/15 05:43:24;;;;;;;;;;;11.20;99.90;;;;;;5039629;28;19972;-91
2023/05/15 05:45:50;;;;;;;;;;;11.20;99.90;;;;;;5043350;28;19931;-91
2023/05/15 05:48:15;;;;;;;;;;;11.20;99.90;;;;;;5024079;28;20147;-91
2023/05/15 05:50:41;;;;;;;;;;;11.20;99.90;;;;;;5030408;28;20483;-92
2023/05/15 05:53:07;;;;;;;;;;;11.20;99.90;;;;;;5026365;28;19967;-92
2023/05/15 05:55:32;;;;;;;;;;;11.30;99.90;;;;;;5027361;28;19939;-93
2023/05/15 05:57:58;;;;;;;;;;;11.30;99.90;;;;;;5026352;28;20004;-95
2023/05/15 06:00:24;;;;;;;;;;;11.40;99.90;;;;;;5052274;28;20007;-92
2023/05/15 06:02:54;;;;;;;;;;;11.60;99.90;;;;;;5056697;28;20413;-92
2023/05/15 06:05:20;;;;;;;;;;;11.80;99.90;;;;;;5064103;28;19932;-92
2023/05/15 06:07:46;;;;;;;;;;;11.90;99.90;;;;;;5036617;28;19928;-93
2023/05/15 06:10:12;;;;;;;;;;;12.00;99.90;;;;;;5030503;28;19928;-93
2023/05/15 06:12:38;;;;;;;;;;;12.00;99.90;;;;;;5046709;28;19974;-94
2023/05/15 06:15:04;;;;;;;;;;;12.00;99.90;;;;;;5046108;28;20475;-92
2023/05/15 06:17:30;;;;;;;;;;;12.10;99.90;;;;;;5029927;28;19970;-92
2023/05/15 06:19:55;;;;;;;;;;;;;;;;;;5035083;28;19924;-93
2023/05/15 06:22:21;;;;;;;;;;;12.30;99.90;;;;;;5061743;28;19924;-93
2023/05/15 06:24:47;;;;;;;;;;;12.40;99.90;;;;;;5027621;28;19925;-93
2023/05/15 06:27:12;;;;;;;;;;;12.40;99.90;;;;;;5045249;28;19924;-93
2023/05/15 06:29:38;;;;;;;;;;;12.30;99.90;;;;;;5058252;28;19947;-94
2023/05/15 06:32:09;;;;;;;;;;;12.20;99.90;;;;;;5030435;28;20358;-94
2023/05/15 06:34:37;;;;;;;;;;;12.10;99.90;;;;;;5042321;28;20444;-92
2023/05/15 06:37:03;;;;;;;;;;;12.00;99.90;;;;;;5026733;28;19932;-93
2023/05/15 06:39:28;;;;;;;;;;;12.00;99.90;;;;;;5019095;28;19931;-93
2023/05/15 06:41:57;;;;;;;;;;;12.00;99.90;;;;;;5062678;28;19947;-93
2023/05/15 06:44:23;;;;;;;;;;;12.10;99.90;;;;;;5040898;28;20377;-94
2023/05/15 06:46:49;;;;;;;;;;;12.20;99.90;;;;;;5027599;28;19951;-92
2023/05/15 06:49:14;;;;;;;;;;;12.30;99.90;;;;;;5037349;28;19947;-93
2023/05/15 06:51:40;;;;;;;;;;;12.40;99.90;;;;;;5029592;28;19924;-93
2023/05/15 06:54:06;;;;;;;;;;;12.40;99.90;;;;;;5044568;28;19992;-92
2023/05/15 06:56:31;;;;;;;;;;;12.60;99.90;;;;;;5028508;28;19924;-95
2023/05/15 06:58:57;;;;;;;;;;;12.60;99.90;;;;;;5044645;28;20025;-92
2023/05/15 07:01:23;;;;;;;;;;;12.60;99.90;;;;;;5044653;28;19928;-92
2023/05/15 07:03:49;;;;;;;;;;;12.60;99.90;;;;;;5056379;28;19975;-94
2023/05/15 07:06:15;;;;;;;;;;;12.60;99.90;;;;;;5034881;28;20446;-93
2023/05/15 07:08:40;;;;;;;;;;;12.70;99.90;;;;;;5029388;28;19929;-92
2023/05/15 07:11:06;;;;;;;;;;;12.70;99.90;;;;;;5047166;28;20301;-93
2023/05/15 07:13:32;;;;;;;;;;;12.80;99.90;;;;;;5029790;28;20039;-92
2023/05/15 07:15:57;;;;;;;;;;;12.90;99.90;;;;;;5032434;28;19928;-92
2023/05/15 07:18:24;;;;;;;;;;;12.90;99.90;;;;;;5057849;28;19928;-92
2023/05/15 07:20:49;;;;;;;;;;;13.00;99.90;;;;;;5036660;28;19925;-92
2023/05/15 07:23:15;;;;;;;;;;;13.00;99.90;;;;;;5041437;28;19984;-93
2023/05/15 07:25:40;;;;;;;;;;;12.90;99.90;;;;;;5045971;28;19940;-93
2023/05/15 07:28:06;;;;;;;;;;;13.00;99.90;;;;;;5032320;28;19925;-92
2023/05/15 07:30:32;;;;;;;;;;;13.00;99.90;;;;;;5031618;28;19944;-93
2023/05/15 07:32:57;;;;;;;;;;;13.10;99.90;;;;;;5029321;28;19925;-92
2023/05/15 07:35:24;;;;;;;;;;;13.10;99.90;;;;;;5045556;28;19925;-91
2023/05/15 07:37:50;;;;;;;;;;;13.10;99.90;;;;;;5022912;28;19925;-92
2023/05/15 07:40:15;;;;;;;;;;;13.10;99.90;;;;;;5004326;28;19925;-93
2023/05/15 07:42:42;;;;;;;;;;;13.10;99.90;;;;;;5008392;28;19929;-93
2023/05/15 07:45:08;;;;;;;;;;;13.10;99.90;;;;;;5040829;28;19984;-93
2023/05/15 07:47:35;;;;;;;;;;;13.20;99.90;;;;;;5016459;28;19925;-92
2023/05/15 07:50:00;;;;;;;;;;;13.20;99.90;;;;;;5028085;28;20346;-91
2023/05/15 07:52:26;;;;;;;;;;;13.30;99.90;;;;;;5013724;28;19936;-91
2023/05/15 07:54:52;;;;;;;;;;;13.30;99.90;;;;;;5024837;28;20042;-94
2023/05/15 07:57:17;;;;;;;;;;;13.30;99.90;;;;;;5033573;28;19929;-92
2023/05/15 07:59:43;;;;;;;;;;;13.30;99.90;;;;;;5027949;28;19970;-94
2023/05/15 08:02:09;;;;;;;;;;;13.30;99.90;;;;;;5026449;28;19944;-94
2023/05/15 08:04:34;;;;;;;;;;;13.30;99.90;;;;;;5043109;28;19932;-93
2023/05/15 08:07:00;;;;;;;;;;;13.30;99.90;;;;;;5027365;28;20299;-91
2023/05/15 08:09:26;;;;;;;;;;;13.30;99.90;;;;;;5027516;28;19999;-93
2023/05/15 08:11:54;;;;;;;;;;;13.20;99.90;;;;;;5014608;28;19925;-93
2023/05/15 08:14:19;;;;;;;;;;;13.30;99.90;;;;;;5027386;28;19932;-93
2023/05/15 08:16:45;;;;;;;;;;;13.30;99.90;;;;;;5016126;28;19924;-93
2023/05/15 08:19:11;;;;;;;;;;;13.40;99.90;;;;;;5027300;28;19924;-91
2023/05/15 08:21:36;;;;;;;;;;;13.40;99.90;;;;;;5034985;28;19989;-95
2023/05/15 08:24:02;;;;;;;;;;;;;;;;;;5035493;28;19925;-92
2023/05/15 08:26:28;;;;;;;;;;;13.40;99.90;;;;;;5029184;28;20266;-93
2023/05/15 08:28:54;;;;;;;;;;;13.40;99.90;;;;;;5028430;28;19997;-94
2023/05/15 08:31:20;;;;;;;;;;;13.40;99.90;;;;;;5027710;28;19971;-92
2023/05/15 08:33:45;;;;;;;;;;;13.50;99.90;;;;;;5032645;28;19935;-94
2023/05/15 08:36:11;;;;;;;;;;;13.50;99.90;;;;;;5019162;28;19932;-92
2023/05/15 08:38:36;;;;;;;;;;;13.60;99.90;;;;;;5039401;28;20028;-93
2023/05/15 08:41:06;;;;;;;;;;;13.70;99.90;;;;;;5046076;28;20416;-92
2023/05/15 08:43:34;;;;;;;;;;;13.60;99.90;;;;;;5055630;28;19920;-94
2023/05/15 08:46:00;;;;;;;;;;;13.70;99.90;;;;;;5053626;28;20051;-92
2023/05/15 08:48:28;;;;;;;;;;;13.70;99.90;;;;;;5050138;28;19920;-93
2023/05/15 08:50:56;;;;;;;;;;;13.80;99.90;;;;;;5045685;28;19924;-93
2023/05/15 08:53:22;;;;;;;;;;;13.80;99.90;;;;;;5045750;28;19925;-93
2023/05/15 08:56:02;;;;;;;;;;;13.90;99.90;;;;;;5060426;28;19960;-92
2023/05/15 08:58:28;;;;;;;;;;;13.90;99.90;;;;;;5041364;28;19925;-92
2023/05/15 09:00:54;;;;;;;;;;;14.00;99.90;;;;;;5039552;28;19931;-92
2023/05/15 09:03:22;;;;;;;;;;;14.00;99.90;;;;;;5046074;28;20369;-93
2023/05/15 09:05:48;;;;;;;;;;;14.00;99.90;;;;;;5029067;28;19929;-91
2023/05/15 09:08:15;;;;;;;;;;;14.10;99.90;;;;;;5047147;28;19924;-92
2023/05/15 09:10:41;;;;;;;;;;;14.10;99.90;;;;;;5056244;28;19931;-93
2023/05/15 09:13:08;;;;;;;;;;;14.10;99.90;;;;;;5030514;28;19924;-92
2023/05/15 09:15:33;;;;;;;;;;;14.20;99.90;;;;;;5039601;28;20011;-93
2023/05/15 09:18:00;;;;;;;;;;;14.30;99.90;;;;;;5048636;28;19925;-92
2023/05/15 09:20:27;;;;;;;;;;;14.40;99.90;;;;;;5027317;28;19925;-92
2023/05/15 09:22:53;;;;;;;;;;;14.60;99.90;;;;;;5039403;28;19968;-92
2023/05/15 09:25:37;;;;;;;;;;;14.70;99.90;;;;;;5031816;28;19980;-92
2023/05/15 09:28:04;;;;;;;;;;;14.80;99.90;;;;;;5043223;28;19925;-94
2023/05/15 09:30:30;;;;;;;;;;;14.90;99.90;;;;;;5047027;28;19963;-94
2023/05/15 09:32:59;;;;;;;;;;;14.90;99.90;;;;;;5028870;28;19925;-94
2023/05/15 09:35:44;;;;;;;;;;;15.10;99.90;;;;;;5035014;28;20383;-92
2023/05/15 09:38:11;;;;;;;;;;;15.20;99.90;;;;;;5030225;28;19931;-93
2023/05/15 09:40:37;;;;;;;;;;;15.30;99.90;;;;;;5045166;28;20376;-91
2023/05/15 09:43:03;;;;;;;;;;;15.30;99.90;;;;;;5030353;28;19924;-92
2023/05/15 09:45:28;;;;;;;;;;;15.50;99.90;;;;;;5028439;28;19959;-92
2023/05/15 09:47:55;;;;;;;;;;;15.60;99.90;;;;;;5062667;28;20061;-93
2023/05/15 09:50:22;;;;;;;;;;;15.60;99.90;;;;;;5026568;28;19996;-91
2023/05/15 09:52:48;;;;;;;;;;;15.80;99.90;;;;;;5041690;28;19924;-92
2023/05/15 09:55:15;;;;;;;;;;;15.90;99.90;;;;;;5046616;28;20368;-91
2023/05/15 09:57:41;;;;;;;;;;;16.00;99.90;;;;;;5035464;28;20460;-93
2023/05/15 10:00:10;;;;;;;;;;;16.00;99.90;;;;;;5042179;28;19959;-92
2023/05/15 10:02:38;;;;;;;;;;;16.10;99.90;;;;;;5016471;28;19936;-91
2023/05/15 10:05:04;;;;;;;;;;;16.20;99.90;;;;;;5036078;28;19939;-91
2023/05/15 10:07:30;;;;;;;;;;;16.20;99.90;;;;;;5030804;28;19925;-91
2023/05/15 10:09:57;;;;;;;;;;;16.20;99.90;;;;;;5043639;28;19996;-91
2023/05/15 10:12:24;;;;;;;;;;;16.30;99.90;;;;;;5042119;28;19921;-91
2023/05/15 10:14:50;;;;;;;;;;;16.40;99.90;;;;;;5052070;28;19925;-92
2023/05/15 10:17:16;;;;;;;;;;;16.40;99.90;;;;;;5031075;28;19929;-91
2023/05/15 10:19:42;;;;;;;;;;;15.60;99.90;;;;;;5041772;28;20461;-90
2023/05/15 10:22:09;;;;;;;;;;;16.30;99.90;;;;;;5030172;28;20400;-92
2023/05/15 10:24:37;;;;;;;;;;;16.30;99.90;;;;;;5046836;28;19935;-92
2023/05/15 10:27:03;;;;;;;;;;;16.30;99.90;;;;;;5042607;28;19932;-91
2023/05/15 10:29:29;;;;;;;;;;;16.30;99.90;;;;;;5034488;28;19925;-91
2023/05/15 10:31:56;;;;;;;;;;;16.50;99.90;;;;;;5043422;28;19925;-92
2023/05/15 10:34:22;;;;;;;;;;;16.50;99.90;;;;;;5042761;28;19925;-92
2023/05/15 10:36:48;;;;;;;;;;;16.60;99.90;;;;;;5058833;28;19925;-91
2023/05/15 10:39:14;;;;;;;;;;;16.60;99.90;;;;;;5062966;28;20015;-92
2023/05/15 10:41:41;;;;;;;;;;;16.70;99.90;;;;;;5055070;28;19967;-93
2023/05/15 10:44:07;;;;;;;;;;;16.70;99.90;;;;;;5056120;28;19974;-91
2023/05/15 10:46:34;;;;;;;;;;;16.60;99.90;;;;;;5050863;28;19929;-91
2023/05/15 10:49:00;;;;;;;;;;;16.60;99.90;;;;;;5058147;28;19950;-91
2023/05/15 10:51:35;;;;;;;;;;;16.70;99.90;;;;;;5059992;28;19972;-91
2023/05/15 10:54:04;;;;;;;;;;;16.70;99.90;;;;;;5060898;28;19988;-91
2023/05/15 10:56:30;;;;;;;;;;;;;;;;;;5062262;28;19931;-92
2023/05/15 10:58:57;;;;;;;;;;;;;;;;;;5062462;28;19938;-91
2023/05/15 11:01:30;;;;;;;;;;;17.20;99.90;;;;;;5069264;28;19925;-92
2023/05/15 11:04:13;;;;;;;;;;;17.20;99.90;;;;;;5064684;28;19929;-92
2023/05/15 11:06:43;;;;;;;;;;;17.20;99.90;;;;;;5054938;28;19950;-92
2023/05/15 11:09:21;;;;;;;;;;;17.50;99.90;;;;;;5053470;28;19924;-92
2023/05/15 11:11:57;;;;;;;;;;;17.70;99.90;;;;;;5080307;28;19996;-92
2023/05/15 11:14:23;;;;;;;;;;;17.90;99.90;;;;;;5062908;28;19924;-92
2023/05/15 11:16:52;;;;;;;;;;;18.00;99.90;;;;;;5059427;28;19925;-91
2023/05/15 11:19:21;;;;;;;;;;;18.00;99.90;;;;;;5059439;28;19935;-92
2023/05/15 11:21:47;;;;;;;;;;;18.00;99.90;;;;;;5062675;28;20029;-93
2023/05/15 11:24:12;;;;;;;;;;;18.00;99.90;;;;;;5042211;28;19924;-92
2023/05/15 11:26:44;;;;;;;;;;;17.90;99.90;;;;;;5073610;28;19920;-92
2023/05/15 11:29:17;;;;;;;;;;;17.90;99.90;;;;;;5056478;28;19939;-92
2023/05/15 11:31:43;;;;;;;;;;;17.80;99.90;;;;;;5070798;28;19921;-93
2023/05/15 11:34:08;;;;;;;;;;;17.80;99.90;;;;;;5073590;28;19943;-93
2023/05/15 11:36:38;;;;;;;;;;;17.80;99.90;;;;;;5061407;28;19925;-92
2023/05/15 11:39:10;;;;;;;;;;;17.90;99.90;;;;;;5061138;28;19946;-92
2023/05/15 11:41:36;;;;;;;;;;;17.80;99.90;;;;;;5032844;28;19944;-93
2023/05/15 11:44:02;;;;;;;;;;;17.70;99.90;;;;;;5057850;28;19924;-90
2023/05/15 11:46:28;;;;;;;;;;;17.60;99.90;;;;;;5061176;28;20019;-93
2023/05/15 11:48:54;;;;;;;;;;;17.60;99.90;;;;;;5059001;28;19948;-91
2023/05/15 11:51:26;;;;;;;;;;;17.60;99.90;;;;;;5056828;28;19967;-92
2023/05/15 11:53:53;;;;;;;;;;;17.60;99.90;;;;;;5047896;28;19924;-92
2023/05/15 11:56:23;;;;;;;;;;;17.60;99.90;;;;;;5069655;28;20388;-92
2023/05/15 11:58:49;;;;;;;;;;;17.50;99.90;;;;;;5040181;28;19964;-94
2023/05/15 12:01:15;;;;;;;;;;;17.40;99.90;;;;;;5061303;28;19925;-92
2023/05/15 12:03:40;;;;;;;;;;;17.60;99.90;;;;;;5043982;28;19932;-92
2023/05/15 12:06:09;;;;;;;;;;;17.50;99.90;;;;;;5050608;28;20473;-93
2023/05/15 12:08:36;;;;;;;;;;;17.50;99.90;;;;;;5056947;28;19955;-92
2023/05/15 12:11:03;;;;;;;;;;;17.40;99.90;;;;;;5062103;28;19947;-92
2023/05/15 12:13:29;;;;;;;;;;;17.40;99.90;;;;;;5076848;28;19925;-91
2023/05/15 12:15:55;;;;;;;;;;;17.40;99.90;;;;;;5054680;28;20025;-92
2023/05/15 12:18:21;;;;;;;;;;;17.30;99.90;;;;;;5059770;28;19933;-92
2023/05/15 12:20:48;;;;;;;;;;;17.50;99.90;;;;;;5039556;28;19929;-91
2023/05/15 12:23:15;;;;;;;;;;;17.40;99.90;;;;;;5032312;28;19924;-92
2023/05/15 12:25:42;;;;;;;;;;;17.40;99.90;;;;;;5072851;28;19924;-92
2023/05/15 12:28:10;;;;;;;;;;;17.40;99.90;;;;;;5066795;28;19931;-92
2023/05/15 12:30:42;;;;;;;;;;;17.40;99.90;;;;;;5063294;28;20015;-92
2023/05/15 12:33:08;;;;;;;;;;;18.20;99.90;;;;;;5056393;28;19936;-91
2023/05/15 12:35:35;;;;;;;;;;;17.30;99.90;;;;;;5041715;28;19971;-92
2023/05/15 12:38:04;;;;;;;;;;;17.30;99.90;;;;;;5064044;28;19931;-93
2023/05/15 12:40:32;;;;;;;;;;;17.20;99.90;;;;;;5039882;28;19947;-92
2023/05/15 12:42:58;;;;;;;;;;;17.30;99.90;;;;;;5043832;28;19924;-92
2023/05/15 12:45:25;;;;;;;;;;;17.40;99.90;;;;;;5030298;28;19978;-93
2023/05/15 12:47:50;;;;;;;;;;;17.70;99.90;;;;;;5037391;28;19924;-93
2023/05/15 12:50:20;;;;;;;;;;;17.90;99.90;;;;;;5032213;28;19930;-92
2023/05/15 12:52:53;;;;;;;;;;;18.10;99.90;;;;;;5057524;28;20492;-91
2023/05/15 12:55:25;;;;;;;;;;;18.00;99.90;;;;;;5051361;28;19932;-93
2023/05/15 12:57:58;;;;;;;;;;;18.10;99.90;;;;;;5036776;28;19926;-91
2023/05/15 13:00:24;;;;;;;;;;;17.80;99.90;;;;;;5041928;28;19943;-91
2023/05/15 13:02:54;;;;;;;;;;;17.70;99.90;;;;;;5041728;28;20260;-92
2023/05/15 13:05:21;;;;;;;;;;;17.70;99.90;;;;;;5039396;28;20300;-92
2023/05/15 13:07:47;;;;;;;;;;;17.70;99.90;;;;;;5030484;28;19924;-92
2023/05/15 13:10:12;;;;;;;;;;;17.60;99.90;;;;;;5035315;28;19931;-91
2023/05/15 13:12:40;;;;;;;;;;;17.30;99.90;;;;;;5048160;28;19932;-90
2023/05/15 13:15:06;;;;;;;;;;;17.30;99.90;;;;;;5045380;28;19928;-90
2023/05/15 13:17:38;;;;;;;;;;;17.20;99.90;;;;;;5025301;28;19960;-91
2023/05/15 13:20:05;;;;;;;;;;;17.10;99.90;;;;;;5045700;28;20285;-92
2023/05/15 13:22:31;;;;;;;;;;;17.10;99.90;;;;;;5044763;28;19925;-91
2023/05/15 13:24:57;;;;;;;;;;;17.20;99.90;;;;;;5061504;28;19931;-95
2023/05/15 13:27:23;;;;;;;;;;;17.10;99.90;;;;;;5028392;28;19925;-92
2023/05/15 13:29:48;;;;;;;;;;;17.20;99.90;;;;;;5046648;28;20037;-93
2023/05/15 13:32:14;;;;;;;;;;;17.30;99.90;;;;;;5028906;28;19948;-93
2023/05/15 13:34:40;;;;;;;;;;;17.20;99.90;;;;;;5026175;28;19925;-94
2023/05/15 13:37:05;;;;;;;;;;;17.20;99.90;;;;;;5042106;28;19962;-92
2023/05/15 13:39:31;;;;;;;;;;;16.90;99.90;;;;;;5053108;28;19932;-92
2023/05/15 13:41:57;;;;;;;;;;;16.90;99.90;;;;;;5056772;28;19924;-94
2023/05/15 13:44:23;;;;;;;;;;;16.60;99.90;;;;;;5028006;28;19925;-93
2023/05/15 13:46:48;;;;;;;;;;;16.50;99.90;;;;;;5027268;28;19925;-92
2023/05/15 13:49:14;;;;;;;;;;;16.40;99.90;;;;;;5022402;28;20364;-93
2023/05/15 13:51:39;;;;;;;;;;;16.30;99.90;;;;;;5037337;28;19935;-94
2023/05/15 13:54:05;;;;;;;;;;;16.10;99.90;;;;;;5031898;28;20350;-92
2023/05/15 13:56:31;;;;;;;;;;;16.00;99.90;;;;;;5026907;28;19932;-94
2023/05/15 13:58:56;;;;;;;;;;;16.00;99.90;;;;;;5016464;28;19934;-94
2023/05/15 14:01:22;;;;;;;;;;;15.90;99.90;;;;;;5028686;28;19932;-92
2023/05/15 14:03:48;;;;;;;;;;;15.90;99.90;;;;;;5029143;28;19924;-92
2023/05/15 14:06:13;;;;;;;;;;;15.80;99.90;;;;;;5060660;28;19933;-94
2023/05/15 14:08:39;;;;;;;;;;;15.80;99.90;;;;;;5041289;28;19921;-94
2023/05/15 14:11:05;;;;;;;;;;;15.80;99.90;;;;;;5065027;28;19929;-93
2023/05/15 14:13:32;;;;;;;;;;;15.70;99.90;;;;;;5039584;28;19931;-93
2023/05/15 14:15:57;;;;;;;;;;;15.80;99.90;;;;;;5048260;28;19935;-92
2023/05/15 14:18:24;;;;;;;;;;;15.70;99.90;;;;;;5036009;28;19928;-92